Redwood City, CA (94061)

4:56 PM PDT on July 23, 2016 (GMT -0700)
Jasper Ridge Biological Preserve | | Change Station

Elev 420 ft 37.41 °N, 122.24 °W | Updated 13 minutes ago

Clear
Clear
96.5 °F
Feels Like 95 °F
N
5.0
Wind Variable Wind from ENE
Gusts 10.0 mph

Today
High -- | Low -- °F
--% Chance of Precip.
Yesterday
High -- | Low -- °F
Precip. -- in
Pressure 29.88 in
Visibility 10.0 miles
Clouds Clear
Heat Index 95 °F
Dew Point 57 °F
Humidity 27%
Rainfall 0.00 in
Snow Depth Not available.
6:06 AM 8:23 PM
Waning Gibbous, 81% visible
METAR KSQL 232350Z 30015KT 10SM SKC 31/09 A2988
Pressure 29.88 in
Visibility 10.0 miles
Clouds Clear
Heat Index 95 °F
Dew Point 57 °F
Humidity 27%
Rainfall 0.00 in
Snow Depth Not available.
6:06 AM 8:23 PM
Waning Gibbous, 81% visible
METAR KSQL 232350Z 30015KT 10SM SKC 31/09 A2988

10-Day Weather Forecast

Almanac

Astronomy

Jul. 23, 2016 Rise Set
Actual Time
Civil Twilight
Nautical Twilight
Astronomical Twilight
Moon
Length of Visible Light
Length of Day
Tomorrow will be .
, % of the Moon is Illuminated

Today's Extremes

State Highs State Lows

Community

WunderPhotos

Upload Photos

1,926,975 photos uploaded!

WunderBlog® & News

Nearby

Air Quality

  Air Quality AQ Index Pollutant
Not available.

Snow Depth

Station Depth Elevation

Earthquake Activity

City Distance Mag. Time & Date
Minimum magnitude displayed is 2.5.

Coastal Water Temperatures

Place Temperature

Stations

Nearby Weather Stations

Station Location Temp. Windchill Dew Point Humidity Wind Precip. Elev Updated Type
                   

Watches & Warnings

There are currently no watches in effect.